Galena, Indiana
Current Conditions -  °F | °C
As of 10:56 PM on Wednesday 17 Dec 2014 (Local Time) from KSDF Reporting Station
Overcast Overcast  
Wind Chill: 22°   Ceiling: 1900
Heat Index: 31°   Visibility: 9mi
Dew Point: 23°   Wind: 10mph
Humidity: 72%   Direction: 360°N
Pressure: 30.28"   Gusts: NA
Location:  38.3602°N, 85.8979°W
Report Text: KSDF 180356Z 36009KT 9SM OVC019 M01/M05 A3028 RMK AO2 SLP258 T10061050
Loading
Personal Weather Stations






























Interactive Weather Map New forecast layout! Learn more

10-Day Weather Forecast

Advertisements
Track Severe Weather on mobile